Time;durP1;ratioP1;P1;durP2;ratioP2;P2;SDS_P1;SDS_P2;PMS_P1;PMS_P2;Temp;Humidity;BMP_temperature;BMP_pressure;BME280_temperature;BME280_humidity;BME280_pressure;Samples;Min_cycle;Max_cycle;Signal;HPM_P1;HPM_P2
2022/08/29 00:01:04;;;;;;;10.07;4.03;;;;;;;16.69;75.79;102085.50;5034376;28;20049;-51
2022/08/29 00:03:32;;;;;;;12.95;4.85;;;;;;;16.69;75.51;102078.09;5033627;28;20052;-51
2022/08/29 00:06:00;;;;;;;12.93;4.63;;;;;;;16.69;75.38;102069.81;5033406;28;20052;-49
2022/08/29 00:08:28;;;;;;;11.05;4.15;;;;;;;16.62;75.73;102063.78;5031542;28;20114;-49
2022/08/29 00:10:55;;;;;;;10.70;4.00;;;;;;;16.63;76.19;102073.69;5036409;28;20495;-50
2022/08/29 00:13:23;;;;;;;6.95;3.53;;;;;;;16.72;75.19;102068.44;5029559;28;20048;-50
2022/08/29 00:15:51;;;;;;;9.90;3.88;;;;;;;16.75;75.09;102071.44;5015954;28;20044;-49
2022/08/29 00:18:19;;;;;;;6.78;3.20;;;;;;;16.82;75.22;102068.44;5032302;28;20049;-53
2022/08/29 00:20:48;;;;;;;7.70;3.22;;;;;;;16.89;74.51;102066.22;5033768;28;20046;-51
2022/08/29 00:23:16;;;;;;;8.70;3.40;;;;;;;16.95;73.96;102067.00;5033322;28;20047;-50
2022/08/29 00:25:44;;;;;;;9.07;3.65;;;;;;;16.97;74.05;102064.81;5033061;28;20045;-50
2022/08/29 00:28:11;;;;;;;9.65;3.28;;;;;;;17.00;73.89;102056.81;5033061;28;20045;-51
2022/08/29 00:30:40;;;;;;;6.35;3.08;;;;;;;17.06;73.63;102056.81;5014056;28;20053;-50
2022/08/29 00:33:08;;;;;;;6.03;2.60;;;;;;;17.07;73.33;102052.94;5010651;28;20091;-47
2022/08/29 00:35:38;;;;;;;8.20;3.20;;;;;;;17.01;73.23;102061.22;5032913;28;20045;-50
2022/08/29 00:38:09;;;;;;;9.98;3.08;;;;;;;16.95;73.62;102067.00;5016067;28;20049;-50
2022/08/29 00:40:43;;;;;;;7.75;2.92;;;;;;;16.94;74.07;102060.69;5040001;28;20029;-47
2022/08/29 00:43:28;;;;;;;7.25;3.28;;;;;;;16.97;73.95;102075.81;5031031;28;20037;-50
2022/08/29 00:46:37;;;;;;;10.40;3.15;;;;;;;17.00;73.19;102076.09;5032909;28;20049;-48
2022/08/29 00:49:10;;;;;;;6.95;3.22;;;;;;;17.01;73.56;102082.44;5004454;28;20053;-53
2022/08/29 00:51:39;;;;;;;10.50;3.30;;;;;;;17.00;73.26;102081.59;5015345;28;20083;-50
2022/08/29 00:54:09;;;;;;;8.38;3.55;;;;;;;17.02;73.35;102079.38;5015415;28;20041;-52
2022/08/29 00:56:38;;;;;;;9.15;3.65;;;;;;;16.99;73.40;102079.94;5015247;28;20037;-48
2022/08/29 00:59:13;;;;;;;7.18;3.90;;;;;;;16.94;73.56;102085.47;4977625;28;1092918;-52
2022/08/29 01:01:40;;;;;;;10.40;4.03;;;;;;;16.90;73.75;102081.63;5015707;28;20049;-51
2022/08/29 01:04:09;;;;;;;10.35;4.18;;;;;;;16.89;73.84;102085.50;5031470;28;20049;-50
2022/08/29 01:06:51;;;;;;;12.15;5.85;;;;;;;16.86;73.60;102075.03;5017780;28;20034;-51
2022/08/29 01:09:19;;;;;;;14.48;7.05;;;;;;;16.79;74.59;102080.84;4999447;28;20045;-48
2022/08/29 01:14:34;;;;;;;31.10;13.82;;;;;;;16.80;74.44;102081.66;5016600;28;20079;-48
2022/08/29 01:17:07;;;;;;;52.00;22.67;;;;;;;16.79;74.26;102091.03;5015336;28;20522;-49
2022/08/29 01:19:46;;;;;;;60.17;27.92;;;;;;;16.80;74.54;102092.66;5033047;28;20041;-50
2022/08/29 01:22:40;;;;;;;61.65;27.33;;;;;;;16.84;74.00;102082.75;5033305;28;20042;-48
2022/08/29 01:25:15;;;;;;;53.28;25.30;;;;;;;16.83;74.26;102081.09;5032565;28;20041;-50
2022/08/29 01:27:45;;;;;;;58.20;25.38;;;;;;;16.76;74.27;102086.88;4998548;28;20049;-50
2022/08/29 01:30:14;;;;;;;53.53;25.80;;;;;;;16.73;74.52;102081.09;5032791;28;20045;-48
2022/08/29 01:32:42;;;;;;;56.60;25.25;;;;;;;16.68;74.60;102083.84;5033226;28;20067;-52
2022/08/29 01:35:10;;;;;;;64.78;24.92;;;;;;;16.65;74.77;102084.41;5032703;28;20049;-49
2022/08/29 01:37:41;;;;;;;51.28;24.00;;;;;;;16.58;74.76;102080.00;5016147;28;20103;-51
2022/08/29 01:40:10;;;;;;;56.92;24.48;;;;;;;16.57;75.04;102094.03;5031956;28;20042;-50
2022/08/29 01:42:39;;;;;;;50.00;24.23;;;;;;;16.57;75.45;102094.88;5033107;28;20530;-50
2022/08/29 01:45:07;;;;;;;48.10;22.20;;;;;;;16.58;74.68;102081.94;5014358;28;20037;-49
2022/08/29 01:47:37;;;;;;;45.33;20.67;;;;;;;16.57;74.64;102083.88;5016583;28;20041;-50
2022/08/29 01:50:12;;;;;;;43.88;20.83;;;;;;;16.53;75.08;102084.72;5015281;28;20041;-48
2022/08/29 01:52:41;;;;;;;45.58;19.45;;;;;;;16.50;75.34;102083.34;5031186;28;20045;-50
2022/08/29 01:55:09;;;;;;;39.60;17.58;;;;;;;16.49;75.56;102078.09;5013824;28;20041;-49
2022/08/29 01:57:38;;;;;;;40.55;17.38;;;;;;;16.45;75.39;102075.09;5024626;28;20038;-50
2022/08/29 02:00:09;;;;;;;40.20;18.48;;;;;;;16.46;75.73;102075.91;5031450;28;20053;-49
2022/08/29 02:02:37;;;;;;;43.85;20.40;;;;;;;16.47;75.66;102077.56;5015502;28;20427;-50
2022/08/29 02:05:06;;;;;;;45.38;20.30;;;;;;;16.42;75.08;102083.88;5031528;28;20046;-49
2022/08/29 02:07:33;;;;;;;48.83;21.70;;;;;;;16.37;75.37;102073.69;5039003;28;20083;-53
2022/08/29 02:10:01;;;;;;;44.40;21.35;;;;;;;16.38;75.81;102088.31;5032466;28;20450;-50
2022/08/29 02:12:30;;;;;;;70.15;29.80;;;;;;;16.39;75.14;102073.44;5014940;28;20411;-50
2022/08/29 02:14:58;;;;;;;68.05;28.52;;;;;;;16.36;75.73;102072.06;5032481;28;20049;-51
2022/08/29 02:17:26;;;;;;;81.93;36.78;;;;;;;16.38;75.02;102091.06;5032654;28;20405;-49
2022/08/29 02:19:54;;;;;;;105.60;45.33;;;;;;;16.36;75.17;102085.00;5034182;28;20076;-50
2022/08/29 02:22:22;;;;;;;124.95;53.63;;;;;;;16.35;75.48;102086.09;5036220;28;20038;-48
2022/08/29 02:24:49;;;;;;;148.55;62.17;;;;;;;16.32;75.22;102087.47;5036363;28;20084;-49
2022/08/29 02:27:17;;;;;;;184.27;79.57;;;;;;;16.27;75.21;102086.66;5049033;28;20083;-47
2022/08/29 02:29:45;;;;;;;190.52;81.57;;;;;;;16.20;76.10;102084.16;5026720;28;20042;-49
2022/08/29 02:32:14;;;;;;;204.70;88.72;;;;;;;16.14;75.75;102091.59;5033783;28;20138;-48
2022/08/29 02:34:44;;;;;;;195.95;88.22;;;;;;;16.07;76.40;102085.56;5035839;28;20118;-47
2022/08/29 02:37:15;;;;;;;218.52;95.15;;;;;;;16.09;76.38;102082.50;5039904;28;20044;-49
2022/08/29 02:39:43;;;;;;;217.13;92.90;;;;;;;16.10;76.36;102087.75;5036010;28;20500;-49
2022/08/29 02:42:10;;;;;;;257.40;112.93;;;;;;;16.08;76.57;102081.69;5035840;28;20041;-47
2022/08/29 02:44:38;;;;;;;262.13;116.57;;;;;;;16.04;76.29;102082.50;5034020;28;20775;-47
2022/08/29 02:47:08;;;;;;;270.77;115.45;;;;;;;15.95;76.81;102093.25;5044316;28;20086;-47
2022/08/29 02:49:35;;;;;;;258.35;113.78;;;;;;;15.93;77.04;102090.75;5035452;28;20436;-48
2022/08/29 02:52:05;;;;;;;244.45;108.50;;;;;;;15.97;77.32;102100.13;5035975;28;20443;-47
2022/08/29 02:54:33;;;;;;;234.38;104.47;;;;;;;16.00;77.13;102101.50;5017405;28;20053;-47
2022/08/29 02:57:01;;;;;;;228.27;98.65;;;;;;;16.05;77.39;102109.75;5036504;28;20042;-49
2022/08/29 02:59:29;;;;;;;197.10;85.40;;;;;;;16.12;76.58;102103.97;5034989;28;20062;-50
2022/08/29 03:01:56;;;;;;;201.88;86.63;;;;;;;16.13;76.28;102103.69;5018121;28;20550;-50
2022/08/29 03:04:24;;;;;;;215.05;94.18;;;;;;;16.13;76.57;102095.44;5033925;28;20076;-50
2022/08/29 03:06:52;;;;;;;240.07;101.88;;;;;;;16.08;76.77;102098.19;5026537;28;20438;-50
2022/08/29 03:09:20;;;;;;;232.63;101.30;;;;;;;16.08;76.76;102092.69;5017477;28;20041;-49
2022/08/29 03:11:47;;;;;;;261.98;108.22;;;;;;;16.05;76.58;102092.44;5035153;28;20536;-48
2022/08/29 03:14:15;;;;;;;255.93;110.40;;;;;;;16.01;77.13;102091.31;5035634;28;20045;-48
2022/08/29 03:16:43;;;;;;;270.67;113.78;;;;;;;16.00;77.12;102089.69;5016846;28;20389;-48
2022/08/29 03:19:10;;;;;;;253.25;108.18;;;;;;;15.99;76.90;102083.31;5034966;28;20038;-46
2022/08/29 03:21:38;;;;;;;248.75;105.20;;;;;;;15.98;76.67;102082.50;5035418;28;20087;-46
2022/08/29 03:24:06;;;;;;;184.35;80.80;;;;;;;15.96;76.86;102078.38;5019617;28;20041;-46
2022/08/29 03:26:34;;;;;;;184.20;76.85;;;;;;;15.93;76.54;102076.19;5045961;28;20041;-50
2022/08/29 03:29:02;;;;;;;182.02;77.68;;;;;;;15.90;77.53;102079.50;5028721;28;20097;-47
2022/08/29 03:31:29;;;;;;;177.15;75.57;;;;;;;15.92;77.19;102077.28;5019434;28;20041;-47
2022/08/29 03:33:57;;;;;;;201.70;83.75;;;;;;;15.97;77.10;102091.06;5036146;28;20412;-49
2022/08/29 03:36:25;;;;;;;224.55;93.97;;;;;;;15.99;76.69;102080.56;5051966;28;20597;-47
2022/08/29 03:38:53;;;;;;;221.40;93.55;;;;;;;16.01;76.48;102091.31;5047421;28;20485;-47
2022/08/29 03:41:30;;;;;;;236.38;97.05;;;;;;;15.99;76.69;102094.31;5036162;28;20046;-49
2022/08/29 03:43:59;;;;;;;232.45;97.57;;;;;;;15.96;77.04;102086.63;5039836;28;20160;-49
2022/08/29 03:46:26;;;;;;;213.75;88.93;;;;;;;15.93;76.75;102081.69;5034934;28;20073;-48
2022/08/29 03:48:54;;;;;;;213.75;87.20;;;;;;;15.92;77.24;102082.78;5017717;28;20500;-47
2022/08/29 03:51:23;;;;;;;172.05;76.65;;;;;;;15.90;76.80;102079.50;5016593;28;20500;-47
2022/08/29 03:53:56;;;;;;;121.53;51.08;;;;;;;15.88;76.68;102076.19;5018531;28;20504;-49
2022/08/29 03:56:24;;;;;;;89.72;39.30;;;;;;;15.82;77.18;102074.53;5008027;28;20042;-47
2022/08/29 03:58:52;;;;;;;90.25;35.05;;;;;;;15.75;77.33;102075.63;5024118;28;20112;-46
2022/08/29 04:01:27;;;;;;;70.90;30.67;;;;;;;15.71;77.47;102060.78;5040301;28;20042;-49
2022/08/29 04:03:56;;;;;;;70.60;30.40;;;;;;;15.70;77.72;102061.03;5027094;28;20089;-47
2022/08/29 04:06:27;;;;;;;69.72;28.17;;;;;;;15.72;77.48;102062.41;5023487;28;20045;-48
2022/08/29 04:08:55;;;;;;;60.88;26.50;;;;;;;15.72;77.34;102064.34;5037153;28;20056;-52
2022/08/29 04:11:24;;;;;;;62.72;27.08;;;;;;;15.69;77.29;102065.69;5016946;28;20060;-51
2022/08/29 04:13:53;;;;;;;72.47;30.85;;;;;;;15.67;77.02;102058.81;5016142;28;20045;-49
2022/08/29 04:16:25;;;;;;;105.00;42.58;;;;;;;15.59;77.17;102060.16;5017816;28;20400;-48
2022/08/29 04:18:58;;;;;;;108.32;44.95;;;;;;;15.54;77.28;102060.16;5034977;28;20033;-49
2022/08/29 04:21:26;;;;;;;114.38;49.08;;;;;;;15.48;77.75;102067.53;5014910;28;20053;-52
2022/08/29 04:23:54;;;;;;;140.73;56.83;;;;;;;15.44;77.70;102060.13;5004908;28;20049;-50
2022/08/29 04:26:22;;;;;;;137.38;59.35;;;;;;;15.40;77.86;102061.78;5025920;28;20046;-47
2022/08/29 04:29:07;;;;;;;141.43;59.65;;;;;;;15.40;78.38;102059.84;5017675;28;20061;-47
2022/08/29 04:31:35;;;;;;;138.82;59.92;;;;;;;15.40;77.81;102064.50;5032844;28;20107;-49
2022/08/29 04:34:05;;;;;;;133.95;55.75;;;;;;;15.39;78.15;102062.84;5013861;28;20111;-51
2022/08/29 04:36:37;;;;;;;113.80;48.05;;;;;;;15.42;77.89;102067.81;5024166;28;20038;-49
2022/08/29 04:39:06;;;;;;;105.65;42.22;;;;;;;15.41;78.27;102072.47;5031091;28;20064;-50
2022/08/29 04:41:34;;;;;;;102.10;42.08;;;;;;;15.41;78.36;102072.47;5031844;28;20041;-52
2022/08/29 04:44:02;;;;;;;89.22;37.83;;;;;;;15.41;78.28;102071.66;4997991;28;20045;-48
2022/08/29 04:46:30;;;;;;;82.45;34.92;;;;;;;15.37;77.64;102073.28;5031984;28;20389;-49
2022/08/29 04:48:58;;;;;;;81.43;33.58;;;;;;;15.37;78.22;102087.00;5005696;28;20034;-49
2022/08/29 04:51:33;;;;;;;66.95;28.65;;;;;;;15.36;77.91;102079.88;5010636;28;20037;-52
2022/08/29 04:54:01;;;;;;;52.88;23.95;;;;;;;15.31;77.92;102077.94;5030555;28;20041;-52
2022/08/29 04:56:29;;;;;;;51.15;22.83;;;;;;;15.27;78.44;102080.41;5027823;28;20045;-48
2022/08/29 04:58:57;;;;;;;45.13;20.67;;;;;;;15.25;77.99;102082.59;5023731;28;20404;-52
2022/08/29 05:01:25;;;;;;;47.33;17.92;;;;;;;15.25;78.28;102087.22;5013691;28;20416;-49
2022/08/29 05:03:55;;;;;;;34.63;16.35;;;;;;;15.26;78.09;102086.16;5030788;28;20046;-50
2022/08/29 05:06:23;;;;;;;29.67;13.25;;;;;;;15.28;77.94;102090.28;5030915;28;20048;-50
2022/08/29 05:08:52;;;;;;;27.73;11.95;;;;;;;15.29;77.91;102091.09;5030899;28;20045;-50
2022/08/29 05:11:29;;;;;;;31.73;10.27;;;;;;;15.30;77.96;102085.34;5030808;28;20408;-49
2022/08/29 05:13:57;;;;;;;18.60;8.60;;;;;;;15.29;77.89;102086.44;5015520;28;20038;-50
2022/08/29 05:16:25;;;;;;;21.60;9.18;;;;;;;15.24;77.85;102094.66;5031307;28;20415;-50
2022/08/29 05:18:53;;;;;;;19.40;7.60;;;;;;;15.22;78.37;102091.34;5012667;28;20044;-49
2022/08/29 05:21:27;;;;;;;22.02;8.25;;;;;;;15.22;78.40;102090.53;5031255;28;20492;-49
2022/08/29 05:23:55;;;;;;;24.70;8.23;;;;;;;15.23;78.32;102090.25;5034244;28;20045;-51
2022/08/29 05:26:24;;;;;;;49.80;11.32;;;;;;;15.29;78.50;102091.09;5013864;28;20041;-52
2022/08/29 05:28:52;;;;;;;76.90;12.65;;;;;;;15.27;78.07;102085.91;4980103;28;20053;-49
2022/08/29 05:31:21;;;;;;;68.03;12.15;;;;;;;15.24;78.66;102100.16;5030940;28;20488;-49
2022/08/29 05:33:50;;;;;;;61.15;10.65;;;;;;;15.24;78.43;102094.66;5030034;28;20049;-50
2022/08/29 05:36:18;;;;;;;37.38;8.32;;;;;;;15.18;78.44;102093.00;5030581;28;20041;-46
2022/08/29 05:38:45;;;;;;;22.90;7.05;;;;;;;15.18;78.91;102089.44;5013663;28;20050;-51
2022/08/29 05:41:13;;;;;;;21.83;6.70;;;;;;;15.24;78.62;102094.66;5031939;28;20052;-50
2022/08/29 05:43:41;;;;;;;17.13;5.57;;;;;;;15.31;78.32;102105.41;5032581;28;20147;-49
2022/08/29 05:46:10;;;;;;;15.77;5.32;;;;;;;15.37;78.29;102098.00;5031458;28;20049;-48
2022/08/29 05:48:40;;;;;;;16.73;5.25;;;;;;;15.43;77.70;102113.41;5015104;28;20044;-48
2022/08/29 05:51:16;;;;;;;18.17;5.63;;;;;;;15.42;77.86;102107.09;4335218;28;10000569;-51
2022/08/29 05:53:44;;;;;;;18.98;5.25;;;;;;;15.44;77.65;102106.81;5016290;28;20581;-49
2022/08/29 05:56:20;;;;;;;17.00;5.53;;;;;;;15.46;77.96;102107.38;5033039;28;20037;-50
2022/08/29 05:58:48;;;;;;;12.70;5.22;;;;;;;15.50;77.82;102108.50;5021083;28;20671;-51
2022/08/29 06:01:28;;;;;;;11.43;4.55;;;;;;;15.55;77.57;102114.00;5033177;28;20049;-47
2022/08/29 06:03:59;;;;;;;9.40;4.43;;;;;;;15.58;77.41;102110.69;5020234;28;20412;-49
2022/08/29 06:06:28;;;;;;;8.45;4.50;;;;;;;15.58;77.25;102113.44;5025015;28;20040;-51
2022/08/29 06:08:57;;;;;;;9.73;4.45;;;;;;;15.60;77.17;102119.50;5033059;28;20045;-49
2022/08/29 06:11:28;;;;;;;10.70;4.28;;;;;;;15.62;77.29;102120.06;5016319;28;20655;-49
2022/08/29 06:13:56;;;;;;;12.70;4.57;;;;;;;15.67;76.78;102131.06;5032716;28;20049;-49
2022/08/29 06:16:25;;;;;;;17.10;4.95;;;;;;;15.69;76.78;102128.88;5014652;28;20045;-49
2022/08/29 06:18:53;;;;;;;18.25;4.95;;;;;;;15.74;76.34;102123.41;5014613;28;20052;-50
2022/08/29 06:21:22;;;;;;;14.77;4.90;;;;;;;15.77;76.70;102131.13;5015441;28;20053;-50
2022/08/29 06:23:49;;;;;;;17.60;5.05;;;;;;;15.82;76.01;102124.81;5015342;28;20057;-48
2022/08/29 06:26:18;;;;;;;17.73;4.78;;;;;;;15.84;75.75;102119.88;5032701;28;20037;-49
2022/08/29 06:28:46;;;;;;;19.15;5.30;;;;;;;15.85;76.04;102115.19;5031617;28;20057;-47
2022/08/29 06:31:19;;;;;;;25.20;6.32;;;;;;;15.86;76.30;102125.09;5001551;28;20732;-49
2022/08/29 06:33:50;;;;;;;21.73;5.75;;;;;;;15.85;76.14;102121.53;5033078;28;20037;-47
2022/08/29 06:36:18;;;;;;;21.52;5.82;;;;;;;15.88;76.47;102115.50;4999975;28;20060;-48
2022/08/29 06:38:46;;;;;;;16.40;5.00;;;;;;;15.91;75.09;102119.63;5038297;28;20041;-52
2022/08/29 06:41:15;;;;;;;11.68;5.20;;;;;;;15.92;75.38;102127.59;5038409;28;20107;-50
2022/08/29 06:43:43;;;;;;;12.73;4.90;;;;;;;15.86;73.98;102130.59;5032335;28;20515;-48
2022/08/29 06:46:26;;;;;;;12.27;5.05;;;;;;;15.82;74.15;102126.75;5014900;28;20050;-50
2022/08/29 06:48:55;;;;;;;11.07;4.85;;;;;;;15.81;73.90;102133.34;5035883;28;20047;-49
2022/08/29 06:51:24;;;;;;;10.75;4.47;;;;;;;15.83;73.45;102122.91;5017820;28;20072;-49
2022/08/29 06:53:52;;;;;;;11.57;5.13;;;;;;;15.87;73.61;102129.50;5017823;28;20049;-49
2022/08/29 06:56:20;;;;;;;11.85;4.60;;;;;;;15.92;73.25;102133.09;5036014;28;20041;-49
2022/08/29 06:58:47;;;;;;;11.80;5.13;;;;;;;15.96;72.42;102134.19;5035279;28;20080;-49
2022/08/29 07:01:17;;;;;;;10.75;4.82;;;;;;;16.00;72.62;102139.16;5016945;28;20397;-48
2022/08/29 07:03:45;;;;;;;10.65;4.78;;;;;;;16.01;72.33;102140.78;5015522;28;20449;-50
2022/08/29 07:06:13;;;;;;;14.05;5.07;;;;;;;16.06;72.36;102143.56;4986553;28;20042;-49
2022/08/29 07:08:40;;;;;;;25.40;6.20;;;;;;;16.10;71.80;102145.47;4996572;28;20042;-49
2022/08/29 07:11:24;;;;;;;17.13;8.02;;;;;;;16.12;70.48;102142.47;4998248;28;20034;-49
2022/08/29 07:13:54;;;;;;;16.30;7.43;;;;;;;16.13;70.25;102144.94;5016497;28;21760;-50
2022/08/29 07:16:22;;;;;;;14.57;6.20;;;;;;;16.14;70.60;102149.34;5015626;28;20504;-50
2022/08/29 07:18:50;;;;;;;17.13;6.85;;;;;;;16.15;71.12;102147.41;5015198;28;20052;-50
2022/08/29 07:21:20;;;;;;;12.73;5.47;;;;;;;16.18;71.39;102150.44;5015711;28;20045;-48
2022/08/29 07:23:49;;;;;;;13.02;5.20;;;;;;;16.27;71.42;102152.66;4979740;28;20042;-48
2022/08/29 07:26:40;;;;;;;14.43;5.65;;;;;;;16.34;71.58;102144.97;4984209;28;20049;-50
2022/08/29 07:29:11;;;;;;;13.88;5.25;;;;;;;16.36;70.97;102140.03;5013264;28;20412;-50
2022/08/29 07:31:40;;;;;;;9.35;4.50;;;;;;;16.39;70.75;102136.72;5015538;28;20440;-49
2022/08/29 07:34:08;;;;;;;11.70;5.22;;;;;;;16.42;70.60;102141.66;5020834;28;20045;-52
2022/08/29 07:36:36;;;;;;;18.35;5.78;;;;;;;16.52;70.38;102146.31;5020330;28;20042;-52
2022/08/29 07:39:07;;;;;;;12.52;4.97;;;;;;;16.64;70.50;102135.03;5035086;28;20045;-54
2022/08/29 07:41:36;;;;;;;12.23;5.10;;;;;;;16.76;69.64;102130.06;5011117;28;20061;-52
2022/08/29 07:44:04;;;;;;;13.85;5.80;;;;;;;16.88;68.40;102127.88;4999744;28;20045;-51
2022/08/29 07:46:32;;;;;;;14.15;5.50;;;;;;;16.97;67.12;102125.38;5017897;28;20045;-49
2022/08/29 07:49:00;;;;;;;10.63;4.57;;;;;;;16.98;65.40;102125.13;4989347;28;20045;-52
2022/08/29 07:51:29;;;;;;;10.52;4.45;;;;;;;16.93;65.56;102124.28;5026884;28;20120;-49
2022/08/29 07:53:57;;;;;;;14.52;5.00;;;;;;;16.92;66.27;102133.66;5015008;28;20046;-50
2022/08/29 07:56:29;;;;;;;11.32;4.60;;;;;;;16.89;64.80;102131.47;5014686;28;20045;-48
2022/08/29 07:59:03;;;;;;;11.27;4.65;;;;;;;16.89;65.44;102132.28;4983939;28;20038;-49
2022/08/29 08:01:31;;;;;;;15.05;5.63;;;;;;;16.93;65.22;102136.16;5034493;28;20056;-49
2022/08/29 08:03:59;;;;;;;11.70;4.28;;;;;;;16.95;64.56;102136.66;5018207;28;20399;-50
2022/08/29 08:06:27;;;;;;;16.35;5.78;;;;;;;16.89;63.45;102135.03;5034712;28;20048;-49
2022/08/29 08:08:57;;;;;;;24.90;5.82;;;;;;;16.90;62.41;102131.16;5017310;28;20076;-50
2022/08/29 08:11:26;;;;;;;14.27;5.57;;;;;;;16.93;62.18;102129.78;5041310;28;20037;-49
2022/08/29 08:13:55;;;;;;;13.90;5.78;;;;;;;16.93;62.22;102130.63;5018054;28;20041;-47
2022/08/29 08:16:24;;;;;;;17.95;6.95;;;;;;;16.96;63.14;102119.06;5034558;28;20048;-50
2022/08/29 08:18:52;;;;;;;16.10;6.50;;;;;;;17.01;63.47;102123.72;5034131;28;20059;-50
2022/08/29 08:21:21;;;;;;;16.70;6.03;;;;;;;17.06;62.30;102126.47;5000783;28;20049;-49
2022/08/29 08:23:49;;;;;;;17.27;6.35;;;;;;;17.09;62.81;102130.59;5016561;28;20045;-49
2022/08/29 08:26:16;;;;;;;15.00;6.40;;;;;;;17.11;62.15;102131.94;5034215;28;20052;-48
2022/08/29 08:28:44;;;;;;;16.88;6.13;;;;;;;17.13;62.54;102140.75;5017266;28;20488;-49
2022/08/29 08:31:14;;;;;;;16.00;4.88;;;;;;;17.10;61.90;102146.00;5000191;28;20106;-49
2022/08/29 08:33:43;;;;;;;15.73;4.70;;;;;;;17.06;62.49;102136.66;4984028;28;20427;-48
2022/08/29 08:36:28;;;;;;;9.70;4.65;;;;;;;17.02;62.87;102139.94;5002919;28;20071;-49
2022/08/29 08:38:57;;;;;;;14.63;5.30;;;;;;;17.08;62.83;102142.69;5033746;28;20049;-45
2022/08/29 08:41:52;;;;;;;13.23;5.25;;;;;;;17.15;63.12;102140.47;5017446;28;20121;-51
2022/08/29 08:44:27;;;;;;;11.00;4.68;;;;;;;17.20;61.56;102134.97;5027534;28;20050;-51
2022/08/29 08:47:00;;;;;;;10.35;4.45;;;;;;;17.25;60.22;102140.44;5021412;28;20042;-49
2022/08/29 08:49:38;;;;;;;10.23;4.32;;;;;;;17.31;60.68;102136.56;5026577;28;20037;-51
2022/08/29 08:52:15;;;;;;;12.70;4.63;;;;;;;17.34;59.62;102140.69;5004321;28;20050;-49
2022/08/29 08:55:14;;;;;;;10.38;4.20;;;;;;;17.30;60.71;102148.69;5034767;28;20500;-49
2022/08/29 08:57:49;;;;;;;11.30;4.53;;;;;;;17.28;61.62;102141.81;5033241;28;20420;-51
2022/08/29 09:00:16;;;;;;;14.18;5.47;;;;;;;17.27;62.36;102141.00;4996155;28;20060;-48
2022/08/29 09:03:16;;;;;;;11.25;4.68;;;;;;;17.29;62.17;102143.47;5007492;28;20454;-49
2022/08/29 09:06:09;;;;;;;10.13;4.30;;;;;;;17.35;61.56;102140.41;5030648;28;20049;-50
2022/08/29 09:08:49;;;;;;;10.02;4.18;;;;;;;17.42;61.55;102138.19;5045750;28;20068;-46
2022/08/29 09:11:53;;;;;;;10.23;4.13;;;;;;;17.48;60.55;102140.91;5016552;28;20531;-51
2022/08/29 09:14:24;;;;;;;9.70;4.28;;;;;;;17.53;60.75;102143.63;5022547;28;20064;-50
2022/08/29 09:16:54;;;;;;;10.05;4.03;;;;;;;17.57;61.29;102136.47;5033779;28;20045;-48
2022/08/29 09:19:25;;;;;;;11.27;4.53;;;;;;;17.61;60.60;102143.06;5034436;28;20044;-51
2022/08/29 09:21:56;;;;;;;10.10;4.10;;;;;;;17.65;60.56;102135.84;5015782;28;20045;-48
2022/08/29 09:24:35;;;;;;;9.15;3.88;;;;;;;17.68;59.25;102135.31;5015955;28;20064;-48
2022/08/29 09:27:03;;;;;;;9.82;4.38;;;;;;;17.72;59.27;102141.88;5015057;28;20057;-52
2022/08/29 09:29:30;;;;;;;8.82;4.00;;;;;;;17.77;59.36;102150.13;5015825;28;20050;-48
2022/08/29 09:32:08;;;;;;;8.55;4.07;;;;;;;17.74;59.19;102142.41;5033971;28;20464;-48
2022/08/29 09:34:45;;;;;;;9.43;3.97;;;;;;;17.74;59.11;102145.19;5019581;28;20048;-49
2022/08/29 09:37:34;;;;;;;8.98;3.70;;;;;;;17.76;58.98;102139.41;5018128;28;20114;-46
2022/08/29 09:40:09;;;;;;;9.98;4.43;;;;;;;17.78;59.26;102137.19;5033130;28;20045;-50
2022/08/29 09:42:40;;;;;;;9.63;4.20;;;;;;;17.80;59.21;102144.09;5033139;28;20041;-50
2022/08/29 09:45:24;;;;;;;9.85;4.50;;;;;;;17.82;59.25;102144.63;5034453;28;20404;-49
2022/08/29 09:48:16;;;;;;;7.72;3.70;;;;;;;17.84;59.17;102142.38;5032958;28;20064;-48
2022/08/29 09:50:44;;;;;;;9.98;4.03;;;;;;;17.87;58.78;102147.34;5019854;28;20053;-50
2022/08/29 09:53:12;;;;;;;12.18;3.83;;;;;;;17.92;58.49;102143.75;5032640;28;20057;-47
2022/08/29 09:55:52;;;;;;;7.97;3.72;;;;;;;17.94;58.12;102143.44;5017115;28;20045;-50
2022/08/29 09:58:20;;;;;;;9.68;4.47;;;;;;;17.88;58.13;102140.72;4998908;28;20053;-53
2022/08/29 10:01:17;;;;;;;15.15;4.63;;;;;;;17.88;58.46;102148.19;5032665;28;20049;-47
2022/08/29 10:04:02;;;;;;;8.30;3.92;;;;;;;17.91;58.40;102150.34;4985294;28;20054;-50
2022/08/29 10:06:38;;;;;;;8.20;3.83;;;;;;;17.94;58.48;102154.47;5021153;28;20042;-46
2022/08/29 10:09:28;;;;;;;9.35;3.97;;;;;;;17.96;58.45;102141.22;5032743;28;20049;-51
2022/08/29 10:12:18;;;;;;;7.50;3.80;;;;;;;17.97;58.19;102142.91;5030261;28;20045;-50
2022/08/29 10:14:52;;;;;;;10.00;4.07;;;;;;;17.99;58.54;102143.41;5032307;28;20045;-50
2022/08/29 10:20:14;;;;;;;6.90;3.77;;;;;;;18.03;58.46;102141.72;5017585;28;20443;-48
2022/08/29 10:23:00;;;;;;;10.02;4.13;;;;;;;18.06;58.38;102143.91;5016278;28;20296;-50
2022/08/29 10:25:40;;;;;;;10.70;4.00;;;;;;;18.12;58.43;102144.72;5014906;28;20405;-49
2022/08/29 10:28:16;;;;;;;12.88;4.65;;;;;;;18.20;58.44;102136.63;5006030;28;20073;-49
2022/08/29 10:31:05;;;;;;;10.73;4.20;;;;;;;18.25;58.12;102130.25;5012995;28;20052;-50
2022/08/29 10:33:45;;;;;;;10.15;4.30;;;;;;;18.26;58.27;102124.47;5030282;28;20034;-46
2022/08/29 10:36:26;;;;;;;12.48;4.70;;;;;;;18.30;58.35;102130.22;5019416;28;20049;-49
2022/08/29 10:38:58;;;;;;;9.02;3.92;;;;;;;18.30;58.47;102121.94;5015785;28;20038;-49
2022/08/29 10:41:35;;;;;;;9.68;4.10;;;;;;;18.30;58.65;102128.31;5035020;28;20045;-49
2022/08/29 10:44:09;;;;;;;10.35;4.05;;;;;;;18.29;58.63;102121.13;5035428;28;20044;-49
2022/08/29 10:46:55;;;;;;;9.95;4.00;;;;;;;18.31;59.07;102127.19;5017669;28;20042;-46
2022/08/29 10:49:51;;;;;;;9.98;3.78;;;;;;;18.34;59.42;102131.28;5035468;28;20045;-50
2022/08/29 10:52:25;;;;;;;8.65;4.05;;;;;;;18.35;59.43;102130.19;5018816;28;20072;-50
2022/08/29 10:55:02;;;;;;;8.55;4.00;;;;;;;18.35;59.73;102127.44;5034818;28;20042;-49
2022/08/29 10:57:57;;;;;;;8.80;4.20;;;;;;;18.39;60.03;102127.66;5017458;28;20462;-54
2022/08/29 11:00:34;;;;;;;15.77;4.80;;;;;;;18.39;60.40;102124.91;5035277;28;20064;-45
2022/08/29 11:03:30;;;;;;;12.25;4.30;;;;;;;18.43;60.88;102128.75;5041892;28;20527;-49
2022/08/29 11:06:21;;;;;;;12.38;4.43;;;;;;;18.48;60.80;102124.00;5025747;28;20049;-49
2022/08/29 11:08:52;;;;;;;14.40;5.55;;;;;;;18.47;60.30;102113.22;5034780;28;20045;-52
2022/08/29 11:11:21;;;;;;;11.60;4.60;;;;;;;18.48;61.08;102110.19;5013104;28;20041;-51
2022/08/29 11:14:02;;;;;;;9.70;4.10;;;;;;;18.51;61.47;102104.09;5020189;28;20041;-50
2022/08/29 11:16:45;;;;;;;12.80;5.20;;;;;;;18.52;61.51;102104.94;5015644;28;20041;-49
2022/08/29 11:19:23;;;;;;;11.05;4.88;;;;;;;18.57;61.41;102107.63;5016757;28;20037;-48
2022/08/29 11:22:15;;;;;;;13.60;5.30;;;;;;;18.67;61.36;102107.53;5035214;28;20045;-51
2022/08/29 11:24:44;;;;;;;12.30;4.30;;;;;;;18.81;60.59;102093.06;5009509;28;20045;-48
2022/08/29 11:27:28;;;;;;;8.90;4.00;;;;;;;18.87;60.33;102091.91;5019659;28;20041;-51
2022/08/29 11:29:58;;;;;;;12.15;4.13;;;;;;;18.96;59.95;102092.09;5016788;28;20046;-53
2022/08/29 11:32:44;;;;;;;9.30;3.92;;;;;;;19.00;59.23;102082.91;5035062;28;20044;-50
2022/08/29 11:35:35;;;;;;;9.85;4.13;;;;;;;19.06;59.50;102081.72;5035405;28;20050;-50
2022/08/29 11:38:11;;;;;;;9.15;3.85;;;;;;;19.14;59.50;102069.19;5023326;28;20105;-49
2022/08/29 11:41:01;;;;;;;11.20;4.03;;;;;;;19.26;59.20;102066.00;5041047;28;20133;-51
2022/08/29 11:43:53;;;;;;;9.32;4.07;;;;;;;19.39;58.24;102065.28;5007190;28;20046;-50